createdAt,value
2023-04-07T00:01:52.470Z,32.40
2023-04-07T00:04:19.716Z,35.55
2023-04-07T00:06:46.811Z,29.80
2023-04-07T00:09:13.712Z,31.27
2023-04-07T00:11:40.662Z,33.95
2023-04-07T00:14:07.592Z,38.90
2023-04-07T00:16:34.568Z,33.50
2023-04-07T00:19:01.736Z,31.10
2023-04-07T00:21:28.688Z,24.75
2023-04-07T00:23:55.850Z,29.42
2023-04-07T00:26:23.056Z,32.10
2023-04-07T00:28:49.976Z,32.35
2023-04-07T00:31:17.000Z,30.52
2023-04-07T00:33:43.982Z,27.23
2023-04-07T00:36:11.289Z,30.95
2023-04-07T00:38:38.214Z,25.20
2023-04-07T00:41:05.664Z,27.50
2023-04-07T00:43:32.776Z,33.72
2023-04-07T00:45:59.808Z,30.70
2023-04-07T00:48:27.865Z,30.05
2023-04-07T00:50:55.024Z,33.45
2023-04-07T00:53:22.082Z,28.73
2023-04-07T00:55:49.390Z,34.72
2023-04-07T00:58:16.357Z,27.40
2023-04-07T01:00:50.279Z,28.25
2023-04-07T01:03:53.259Z,26.70
2023-04-07T01:06:24.793Z,25.75
2023-04-07T01:09:23.067Z,25.10
2023-04-07T01:12:07.856Z,26.20
2023-04-07T01:14:41.244Z,22.80
2023-04-07T01:17:28.215Z,22.75
2023-04-07T01:20:08.387Z,21.88
2023-04-07T01:23:05.279Z,28.48
2023-04-07T01:25:38.163Z,28.45
2023-04-07T01:28:25.361Z,27.02
2023-04-07T01:30:56.752Z,27.67
2023-04-07T01:33:26.582Z,24.70
2023-04-07T01:35:55.073Z,22.52
2023-04-07T01:38:22.605Z,25.08
2023-04-07T01:40:50.763Z,26.45
2023-04-07T01:43:18.635Z,27.95
2023-04-07T01:45:46.142Z,26.25
2023-04-07T01:48:13.898Z,26.33
2023-04-07T01:50:41.557Z,23.48
2023-04-07T01:53:08.777Z,23.40
2023-04-07T01:55:36.136Z,22.00
2023-04-07T01:58:07.782Z,23.65
2023-04-07T02:00:36.835Z,24.90
2023-04-07T02:03:23.499Z,24.00
2023-04-07T02:05:57.629Z,22.45
2023-04-07T02:08:30.468Z,24.00
2023-04-07T02:11:00.380Z,20.58
2023-04-07T02:13:34.095Z,21.27
2023-04-07T02:16:02.633Z,23.92
2023-04-07T02:18:32.305Z,23.00
2023-04-07T02:21:01.317Z,18.77
2023-04-07T02:23:28.315Z,21.52
2023-04-07T02:25:58.466Z,20.15
2023-04-07T02:28:25.463Z,22.23
2023-04-07T02:30:52.462Z,21.85
2023-04-07T02:33:19.368Z,26.98
2023-04-07T02:35:46.356Z,29.58
2023-04-07T02:38:13.328Z,21.30
2023-04-07T02:40:40.455Z,24.85
2023-04-07T02:43:07.486Z,20.48
2023-04-07T02:45:34.459Z,20.33
2023-04-07T02:48:01.483Z,22.73
2023-04-07T02:50:29.223Z,25.48
2023-04-07T02:52:56.787Z,17.40
2023-04-07T02:55:23.857Z,17.92
2023-04-07T02:57:50.827Z,20.70
2023-04-07T03:00:31.799Z,22.58
2023-04-07T03:03:08.524Z,25.38
2023-04-07T03:05:38.401Z,21.20
2023-04-07T03:08:05.869Z,23.13
2023-04-07T03:10:32.941Z,21.10
2023-04-07T03:12:59.939Z,23.70
2023-04-07T03:15:27.356Z,22.25
2023-04-07T03:17:55.551Z,21.30
2023-04-07T03:20:22.938Z,23.92
2023-04-07T03:22:50.073Z,25.27
2023-04-07T03:25:27.555Z,21.85
2023-04-07T03:27:55.522Z,24.33
2023-04-07T03:30:23.535Z,21.17
2023-04-07T03:32:50.688Z,19.67
2023-04-07T03:35:17.807Z,20.25
2023-04-07T03:37:45.307Z,20.10
2023-04-07T03:40:16.437Z,20.98
2023-04-07T03:42:44.017Z,24.35
2023-04-07T03:45:13.123Z,22.15
2023-04-07T03:47:44.989Z,22.77
2023-04-07T03:50:12.720Z,22.38
2023-04-07T03:53:13.944Z,21.05
2023-04-07T03:55:41.823Z,21.63
2023-04-07T03:58:17.897Z,20.38
2023-04-07T04:00:47.681Z,21.80
2023-04-07T04:03:14.858Z,22.42
2023-04-07T04:05:55.900Z,24.63
2023-04-07T04:08:29.361Z,22.70
2023-04-07T04:10:56.408Z,22.25
2023-04-07T04:13:27.271Z,23.33
2023-04-07T04:15:56.576Z,22.13
2023-04-07T04:18:23.611Z,19.13
2023-04-07T04:20:52.417Z,17.50
2023-04-07T04:23:20.086Z,21.08
2023-04-07T04:25:48.136Z,20.50
2023-04-07T04:28:15.430Z,23.88
2023-04-07T04:30:42.655Z,22.30
2023-04-07T04:33:09.960Z,21.50
2023-04-07T04:35:42.595Z,19.73
2023-04-07T04:38:13.148Z,21.55
2023-04-07T04:40:45.371Z,20.92
2023-04-07T04:43:13.776Z,23.27
2023-04-07T04:45:42.178Z,21.02
2023-04-07T04:48:12.099Z,19.15
2023-04-07T04:50:39.389Z,23.83
2023-04-07T04:53:10.660Z,19.52
2023-04-07T04:55:47.239Z,19.40
2023-04-07T04:58:19.478Z,21.38
2023-04-07T05:00:49.516Z,21.10
2023-04-07T05:03:17.022Z,20.65
2023-04-07T05:05:49.395Z,18.20
2023-04-07T05:08:19.592Z,19.90
2023-04-07T05:10:47.702Z,17.40
2023-04-07T05:13:17.891Z,22.23
2023-04-07T05:15:46.144Z,19.52
2023-04-07T05:18:14.409Z,21.23
2023-04-07T05:20:41.595Z,20.45
2023-04-07T05:23:09.622Z,20.73
2023-04-07T05:25:37.682Z,21.58
2023-04-07T05:28:06.797Z,20.17
2023-04-07T05:30:34.530Z,23.23
2023-04-07T05:33:01.811Z,22.38
2023-04-07T05:38:17.203Z,23.02
2023-04-07T05:40:46.063Z,22.23
2023-04-07T05:43:19.303Z,24.40
2023-04-07T05:45:46.305Z,22.65
2023-04-07T05:48:13.438Z,22.88
2023-04-07T05:50:44.701Z,22.88
2023-04-07T05:53:15.537Z,20.67
2023-04-07T05:55:43.717Z,22.95
2023-04-07T05:58:14.810Z,21.52
2023-04-07T06:00:47.669Z,24.42
2023-04-07T06:03:17.399Z,19.73
2023-04-07T06:05:54.065Z,27.25
2023-04-07T06:08:22.455Z,23.30
2023-04-07T06:10:49.541Z,19.58
2023-04-07T06:13:16.692Z,35.72
2023-04-07T06:15:43.673Z,33.13
2023-04-07T06:18:10.709Z,31.58
2023-04-07T06:20:37.975Z,23.40
2023-04-07T06:23:05.008Z,23.67
2023-04-07T06:25:32.404Z,33.85
2023-04-07T06:28:01.276Z,25.80
2023-04-07T06:30:28.268Z,26.80
2023-04-07T06:32:55.407Z,22.75
2023-04-07T06:35:22.419Z,22.65
2023-04-07T06:37:49.371Z,25.75
2023-04-07T06:40:16.454Z,20.25
2023-04-07T06:42:43.401Z,26.55
2023-04-07T06:45:26.484Z,25.25
2023-04-07T06:47:53.418Z,23.90
2023-04-07T06:50:22.328Z,20.42
2023-04-07T06:52:49.393Z,21.40
2023-04-07T06:55:16.477Z,25.30
2023-04-07T06:57:43.491Z,26.33
2023-04-07T07:00:11.144Z,26.75
2023-04-07T07:02:38.363Z,29.40
2023-04-07T07:05:05.916Z,31.08
2023-04-07T07:07:32.848Z,34.65
2023-04-07T07:09:59.870Z,30.83
2023-04-07T07:12:26.816Z,32.42
2023-04-07T07:14:53.938Z,29.50
2023-04-07T07:17:20.902Z,30.85
2023-04-07T07:19:47.924Z,27.23
2023-04-07T07:22:14.796Z,27.38
2023-04-07T07:24:41.762Z,27.17
2023-04-07T07:27:08.668Z,31.10
2023-04-07T07:29:35.656Z,26.23
2023-04-07T07:32:02.608Z,26.63
2023-04-07T07:34:29.959Z,25.27
2023-04-07T07:36:56.843Z,27.90
2023-04-07T07:39:23.861Z,29.85
2023-04-07T07:41:51.538Z,23.10
2023-04-07T07:44:20.331Z,26.27
2023-04-07T07:46:47.242Z,24.02
2023-04-07T07:49:14.804Z,22.02
2023-04-07T07:51:41.956Z,24.20
2023-04-07T07:54:09.676Z,25.05
2023-04-07T07:56:36.643Z,30.45
2023-04-07T07:59:06.520Z,25.85
2023-04-07T08:01:33.917Z,23.00
2023-04-07T08:04:01.189Z,21.42
2023-04-07T08:06:29.262Z,21.05
2023-04-07T08:08:56.272Z,24.27
2023-04-07T08:11:23.242Z,29.73
2023-04-07T08:13:50.656Z,22.25
2023-04-07T08:16:17.888Z,25.75
2023-04-07T08:18:45.114Z,27.27
2023-04-07T08:21:12.944Z,23.92
2023-04-07T08:23:40.192Z,21.88
2023-04-07T08:26:07.489Z,27.85
2023-04-07T08:28:34.428Z,22.73
2023-04-07T08:31:01.356Z,20.92
2023-04-07T08:33:28.480Z,23.75
2023-04-07T08:35:55.450Z,20.42
2023-04-07T08:38:22.491Z,19.23
2023-04-07T08:41:14.807Z,24.08
2023-04-07T08:43:44.155Z,20.98
2023-04-07T08:46:11.690Z,22.63
2023-04-07T08:48:39.093Z,19.83
2023-04-07T08:51:08.509Z,27.95
2023-04-07T08:53:48.177Z,20.95
2023-04-07T08:56:16.240Z,17.70
2023-04-07T08:58:47.643Z,22.85
2023-04-07T09:01:16.668Z,17.77
2023-04-07T09:03:45.589Z,25.40
2023-04-07T09:06:12.797Z,21.65
2023-04-07T09:08:42.937Z,22.60
2023-04-07T09:11:09.955Z,18.95
2023-04-07T09:13:36.930Z,20.65
2023-04-07T09:16:04.385Z,21.73
2023-04-07T09:18:31.529Z,21.40
2023-04-07T09:20:59.790Z,20.30
2023-04-07T09:23:36.123Z,23.33
2023-04-07T09:26:18.680Z,24.33
2023-04-07T09:28:47.430Z,18.20
2023-04-07T09:31:14.604Z,21.60
2023-04-07T09:33:41.535Z,21.58
2023-04-07T09:36:08.761Z,19.45
2023-04-07T09:38:39.374Z,20.73
2023-04-07T09:41:16.841Z,23.10
2023-04-07T09:43:46.104Z,23.52
2023-04-07T09:46:15.607Z,20.52
2023-04-07T09:48:43.925Z,19.17
2023-04-07T09:51:18.419Z,23.27
2023-04-07T09:53:51.629Z,27.77
2023-04-07T09:56:22.447Z,18.02
2023-04-07T09:58:53.320Z,16.73
2023-04-07T10:01:21.969Z,10.35
2023-04-07T10:03:50.866Z,10.52
2023-04-07T10:06:19.410Z,10.02
2023-04-07T10:08:46.819Z,11.38
2023-04-07T10:11:15.916Z,12.38
2023-04-07T10:13:42.999Z,11.63
2023-04-07T10:16:10.053Z,12.73
2023-04-07T10:18:56.188Z,13.18
2023-04-07T10:21:23.750Z,12.95
2023-04-07T10:24:04.576Z,14.13
2023-04-07T10:26:35.163Z,10.27
2023-04-07T10:29:10.628Z,12.02
2023-04-07T10:31:39.670Z,14.55
2023-04-07T10:34:06.648Z,16.08
2023-04-07T10:36:34.855Z,12.07
2023-04-07T10:39:07.825Z,11.20
2023-04-07T10:41:39.336Z,16.13
2023-04-07T10:44:08.182Z,14.15
2023-04-07T10:47:01.308Z,15.20
2023-04-07T10:49:29.063Z,14.98
2023-04-07T10:52:14.873Z,14.13
2023-04-07T10:54:42.868Z,17.70
2023-04-07T10:57:17.118Z,12.18
2023-04-07T11:00:12.117Z,14.07
2023-04-07T11:02:40.546Z,13.32
2023-04-07T11:05:08.012Z,16.15
2023-04-07T11:07:50.220Z,11.38
2023-04-07T11:10:19.136Z,14.02
2023-04-07T11:12:58.923Z,16.10
2023-04-07T11:15:25.987Z,12.75
2023-04-07T11:18:11.711Z,15.02
2023-04-07T11:20:46.960Z,11.70
2023-04-07T11:23:18.484Z,8.90
2023-04-07T11:25:49.845Z,11.35
2023-04-07T11:28:17.429Z,14.77
2023-04-07T11:30:52.853Z,12.27
2023-04-07T11:33:22.374Z,16.05
2023-04-07T11:35:51.572Z,14.23
2023-04-07T11:38:19.559Z,13.45
2023-04-07T11:40:46.889Z,13.80
2023-04-07T11:43:19.008Z,14.57
2023-04-07T11:45:46.094Z,13.35
2023-04-07T11:48:33.177Z,14.90
2023-04-07T11:51:01.573Z,14.25
2023-04-07T11:53:30.131Z,15.65
2023-04-07T11:56:18.866Z,12.45
2023-04-07T11:58:50.904Z,12.98
2023-04-07T12:01:18.305Z,15.32
2023-04-07T12:03:59.919Z,18.65
2023-04-07T12:06:41.576Z,15.80
2023-04-07T12:09:30.090Z,18.05
2023-04-07T12:11:58.412Z,17.15
2023-04-07T12:14:26.398Z,14.98
2023-04-07T12:16:56.469Z,15.18
2023-04-07T12:19:30.447Z,14.25
2023-04-07T12:21:57.393Z,17.35
2023-04-07T12:24:24.373Z,16.52
2023-04-07T12:26:51.269Z,19.00
2023-04-07T12:29:20.105Z,20.13
2023-04-07T12:31:50.139Z,14.30
2023-04-07T12:34:17.955Z,11.27
2023-04-07T12:36:45.166Z,15.13
2023-04-07T12:39:12.298Z,13.93
2023-04-07T12:41:39.856Z,16.25
2023-04-07T12:44:06.955Z,15.38
2023-04-07T12:46:34.229Z,13.43
2023-04-07T12:49:01.303Z,17.30
2023-04-07T12:51:28.619Z,17.15
2023-04-07T12:53:55.713Z,17.38
2023-04-07T12:56:22.728Z,18.90
2023-04-07T12:58:49.738Z,16.30
2023-04-07T13:01:16.915Z,19.15
2023-04-07T13:03:44.535Z,16.42
2023-04-07T13:06:11.994Z,17.33
2023-04-07T13:08:40.430Z,20.88
2023-04-07T13:11:07.779Z,18.50
2023-04-07T13:13:34.961Z,16.38
2023-04-07T13:16:02.083Z,17.83
2023-04-07T13:18:29.015Z,17.23
2023-04-07T13:21:26.687Z,17.35
2023-04-07T13:23:44.096Z,20.08
2023-04-07T13:26:11.758Z,17.95
2023-04-07T13:28:39.176Z,20.30
2023-04-07T13:31:06.510Z,25.52
2023-04-07T13:33:34.361Z,21.30
2023-04-07T13:36:01.298Z,18.35
2023-04-07T13:38:28.262Z,20.50
2023-04-07T13:40:55.190Z,19.55
2023-04-07T13:43:22.145Z,18.38
2023-04-07T13:45:49.465Z,17.63
2023-04-07T13:48:16.545Z,24.80
2023-04-07T13:50:43.536Z,19.63
2023-04-07T13:53:10.429Z,19.45
2023-04-07T13:55:37.346Z,19.60
2023-04-07T13:58:04.253Z,17.90
2023-04-07T14:00:31.369Z,21.25
2023-04-07T14:02:58.449Z,19.80
2023-04-07T14:05:25.563Z,19.55
2023-04-07T14:07:52.681Z,18.83
2023-04-07T14:10:19.608Z,16.08
2023-04-07T14:12:47.118Z,19.25
2023-04-07T14:15:14.857Z,16.48
2023-04-07T14:17:42.561Z,16.42
2023-04-07T14:20:09.896Z,14.68
2023-04-07T14:22:36.826Z,15.20
2023-04-07T14:25:04.020Z,15.98
2023-04-07T14:27:31.333Z,14.60
2023-04-07T14:29:59.624Z,18.08
2023-04-07T14:32:29.484Z,13.65
2023-04-07T14:34:59.062Z,15.52
2023-04-07T14:37:28.440Z,15.52
2023-04-07T14:42:25.890Z,17.33
2023-04-07T14:44:53.195Z,23.25
2023-04-07T14:47:20.293Z,20.58
2023-04-07T14:49:47.711Z,22.88
2023-04-07T14:52:14.773Z,20.48
2023-04-07T14:54:41.675Z,24.52
2023-04-07T14:57:08.564Z,21.90
2023-04-07T14:59:35.526Z,21.17
2023-04-07T15:02:02.625Z,23.55
2023-04-07T15:04:29.810Z,22.02
2023-04-07T15:06:56.828Z,23.90
2023-04-07T15:09:23.765Z,20.88
2023-04-07T15:11:50.713Z,20.88
2023-04-07T15:14:17.598Z,22.42
2023-04-07T15:16:47.230Z,24.55
2023-04-07T15:19:14.167Z,22.02
2023-04-07T15:21:41.063Z,20.67
2023-04-07T15:24:07.968Z,26.75
2023-04-07T15:26:34.887Z,19.25
2023-04-07T15:29:01.814Z,21.00
2023-04-07T15:31:29.971Z,18.63
2023-04-07T15:33:56.998Z,21.33
2023-04-07T15:36:23.950Z,18.52
2023-04-07T15:38:51.019Z,17.73
2023-04-07T15:41:17.998Z,19.08
2023-04-07T15:43:44.925Z,20.50
2023-04-07T15:46:12.012Z,18.50
2023-04-07T15:48:38.980Z,17.67
2023-04-07T15:51:05.996Z,22.67
2023-04-07T15:53:33.172Z,24.40
2023-04-07T15:56:00.197Z,19.25
2023-04-07T15:58:27.280Z,19.20
2023-04-07T16:00:54.426Z,20.90
2023-04-07T16:03:21.474Z,21.05
2023-04-07T16:05:48.554Z,19.75
2023-04-07T16:08:15.591Z,19.38
2023-04-07T16:10:42.630Z,20.50
2023-04-07T16:13:10.414Z,21.20
2023-04-07T16:15:40.742Z,16.92
2023-04-07T16:18:12.533Z,16.88
2023-04-07T16:20:39.771Z,17.40
2023-04-07T16:23:06.730Z,17.95
2023-04-07T16:25:33.714Z,17.73
2023-04-07T16:28:00.635Z,18.90
2023-04-07T16:30:27.667Z,18.80
2023-04-07T16:32:54.727Z,14.63
2023-04-07T16:35:21.823Z,19.52
2023-04-07T16:37:50.127Z,16.10
2023-04-07T16:40:17.286Z,16.60
2023-04-07T16:42:44.255Z,18.35
2023-04-07T16:45:11.346Z,17.67
2023-04-07T16:47:38.642Z,18.20
2023-04-07T16:50:06.201Z,15.02
2023-04-07T16:52:33.326Z,16.45
2023-04-07T16:55:01.053Z,17.75
2023-04-07T16:57:28.160Z,15.48
2023-04-07T16:59:55.148Z,16.00
2023-04-07T17:02:22.467Z,18.55
2023-04-07T17:04:49.666Z,17.00
2023-04-07T17:07:16.746Z,15.43
2023-04-07T17:09:43.635Z,18.10
2023-04-07T17:12:10.712Z,17.88
2023-04-07T17:14:37.663Z,17.13
2023-04-07T17:17:04.690Z,16.50
2023-04-07T17:19:31.852Z,20.02
2023-04-07T17:21:58.804Z,15.40
2023-04-07T17:24:25.687Z,16.60
2023-04-07T17:26:52.591Z,13.73
2023-04-07T17:29:21.062Z,15.73
2023-04-07T17:31:49.746Z,15.27
2023-04-07T17:34:17.204Z,14.48
2023-04-07T17:36:44.145Z,15.18
2023-04-07T17:39:11.168Z,15.75
2023-04-07T17:41:38.584Z,14.52
2023-04-07T17:44:06.179Z,14.88
2023-04-07T17:46:33.458Z,16.50
2023-04-07T17:49:01.375Z,14.50
2023-04-07T17:51:28.906Z,17.08
2023-04-07T17:53:56.885Z,20.45
2023-04-07T17:56:24.604Z,17.13
2023-04-07T17:58:51.586Z,15.90
2023-04-07T18:01:18.642Z,15.10
2023-04-07T18:03:45.815Z,15.80
2023-04-07T18:06:19.072Z,14.18
2023-04-07T18:08:47.712Z,13.82
2023-04-07T18:11:15.531Z,14.35
2023-04-07T18:13:42.842Z,13.88
2023-04-07T18:16:17.296Z,14.98
2023-04-07T18:18:46.451Z,14.40
2023-04-07T18:21:13.384Z,18.83
2023-04-07T18:23:40.271Z,13.30
2023-04-07T18:26:07.274Z,18.00
2023-04-07T18:28:34.707Z,18.77
2023-04-07T18:31:06.419Z,15.80
2023-04-07T18:33:34.297Z,16.67
2023-04-07T18:36:04.360Z,15.65
2023-04-07T18:38:31.604Z,16.27
2023-04-07T18:40:59.056Z,15.95
2023-04-07T18:43:28.623Z,17.45
2023-04-07T18:45:56.493Z,17.23
2023-04-07T18:48:23.486Z,19.27
2023-04-07T18:50:52.156Z,15.65
2023-04-07T18:53:22.926Z,15.25
2023-04-07T18:55:50.349Z,18.35
2023-04-07T18:58:17.422Z,18.05
2023-04-07T19:00:44.700Z,20.75
2023-04-07T19:03:11.998Z,17.98
2023-04-07T19:05:39.935Z,18.05
2023-04-07T19:08:07.210Z,18.70
2023-04-07T19:10:34.871Z,16.88
2023-04-07T19:13:01.898Z,19.58
2023-04-07T19:15:34.220Z,18.13
2023-04-07T19:18:02.052Z,53.38
2023-04-07T19:20:33.893Z,17.05
2023-04-07T19:23:01.807Z,18.83
2023-04-07T19:25:54.957Z,19.75
2023-04-07T19:28:21.957Z,16.27
2023-04-07T19:30:48.868Z,21.52
2023-04-07T19:33:16.186Z,17.58
2023-04-07T19:35:43.219Z,20.42
2023-04-07T19:38:10.359Z,21.33
2023-04-07T19:40:37.417Z,18.73
2023-04-07T19:43:04.477Z,20.73
2023-04-07T19:45:31.467Z,18.08
2023-04-07T19:47:59.221Z,18.88
2023-04-07T19:50:28.193Z,21.55
2023-04-07T19:52:55.191Z,18.15
2023-04-07T19:55:22.237Z,16.50
2023-04-07T19:57:49.469Z,18.73
2023-04-07T20:00:16.764Z,18.98
2023-04-07T20:02:50.467Z,20.02
2023-04-07T20:05:18.629Z,17.42
2023-04-07T20:07:45.932Z,18.83
2023-04-07T20:10:12.861Z,17.30
2023-04-07T20:12:39.784Z,20.00
2023-04-07T20:15:07.913Z,20.73
2023-04-07T20:17:36.864Z,18.27
2023-04-07T20:20:04.952Z,18.13
2023-04-07T20:22:33.902Z,20.92
2023-04-07T20:25:04.837Z,18.08
2023-04-07T20:27:32.281Z,19.75
2023-04-07T20:29:59.336Z,17.65
2023-04-07T20:32:26.955Z,18.85
2023-04-07T20:34:54.760Z,20.15
2023-04-07T20:37:22.771Z,19.23
2023-04-07T20:39:49.921Z,18.88
2023-04-07T20:42:17.630Z,19.15
2023-04-07T20:44:48.774Z,19.35
2023-04-07T20:47:15.725Z,18.33
2023-04-07T20:49:43.786Z,17.48
2023-04-07T20:52:11.032Z,17.15
2023-04-07T20:54:37.930Z,22.42
2023-04-07T20:57:04.831Z,17.48
2023-04-07T20:59:32.690Z,22.42
2023-04-07T21:01:59.866Z,17.27
2023-04-07T21:04:27.470Z,18.30
2023-04-07T21:06:54.510Z,18.08
2023-04-07T21:09:21.452Z,20.65
2023-04-07T21:11:48.420Z,22.10
2023-04-07T21:14:15.685Z,18.10
2023-04-07T21:16:43.462Z,18.73
2023-04-07T21:19:11.128Z,18.25
2023-04-07T21:21:38.083Z,17.42
2023-04-07T21:24:05.217Z,18.02
2023-04-07T21:26:32.425Z,21.48
2023-04-07T21:28:59.365Z,22.63
2023-04-07T21:31:26.730Z,20.85
2023-04-07T21:33:53.765Z,23.45
2023-04-07T21:36:20.693Z,23.63
2023-04-07T21:38:47.976Z,20.95
2023-04-07T21:41:15.470Z,22.15
2023-04-07T21:43:42.447Z,22.50
2023-04-07T21:46:09.501Z,22.50
2023-04-07T21:48:36.734Z,24.05
2023-04-07T21:51:03.805Z,20.35
2023-04-07T21:53:30.767Z,22.90
2023-04-07T21:55:57.880Z,21.63
2023-04-07T21:58:25.253Z,24.42
2023-04-07T22:00:53.240Z,21.42
2023-04-07T22:03:20.418Z,22.05
2023-04-07T22:05:47.647Z,23.40
2023-04-07T22:08:14.690Z,22.45
2023-04-07T22:10:41.620Z,18.67
2023-04-07T22:13:09.485Z,19.00
2023-04-07T22:15:36.424Z,24.80
2023-04-07T22:18:03.616Z,21.17
2023-04-07T22:20:30.849Z,23.63
2023-04-07T22:22:57.976Z,19.25
2023-04-07T22:25:25.610Z,22.63
2023-04-07T22:27:52.859Z,20.00
2023-04-07T22:30:20.725Z,22.92
2023-04-07T22:32:48.240Z,22.40
2023-04-07T22:35:15.626Z,21.45
2023-04-07T22:37:42.597Z,20.38
2023-04-07T22:40:10.504Z,23.20
2023-04-07T22:42:37.854Z,20.30
2023-04-07T22:45:05.622Z,24.08
2023-04-07T22:47:32.558Z,24.83
2023-04-07T22:49:59.695Z,20.30
2023-04-07T22:52:26.641Z,21.50
2023-04-07T22:54:53.921Z,20.90
2023-04-07T22:57:21.333Z,20.90
2023-04-07T22:59:48.336Z,21.08
2023-04-07T23:02:15.369Z,23.17
2023-04-07T23:04:42.418Z,22.08
2023-04-07T23:07:09.373Z,22.23
2023-04-07T23:09:36.588Z,21.55
2023-04-07T23:12:04.219Z,24.77
2023-04-07T23:14:31.373Z,21.10
2023-04-07T23:16:58.633Z,23.80
2023-04-07T23:19:25.607Z,22.40
2023-04-07T23:21:53.560Z,22.67
2023-04-07T23:24:20.581Z,22.98
2023-04-07T23:26:47.531Z,21.48
2023-04-07T23:29:14.403Z,21.52
2023-04-07T23:31:41.533Z,20.67
2023-04-07T23:34:08.475Z,21.95
2023-04-07T23:36:35.795Z,22.80
2023-04-07T23:39:02.802Z,22.27
2023-04-07T23:41:29.793Z,25.60
2023-04-07T23:43:57.102Z,24.15
2023-04-07T23:46:24.436Z,23.25
2023-04-07T23:48:51.619Z,26.63
2023-04-07T23:51:19.403Z,31.08
2023-04-07T23:53:46.468Z,26.27
2023-04-07T23:56:13.410Z,27.42
2023-04-07T23:58:40.508Z,26.80
